createdAt,value
2023-09-30T00:00:34.119Z,89.97
2023-09-30T00:01:34.049Z,89.97
2023-09-30T00:02:34.005Z,89.66
2023-09-30T00:03:34.054Z,90.07
2023-09-30T00:04:34.022Z,90.31
2023-09-30T00:05:33.925Z,90.01
2023-09-30T00:06:33.919Z,90.31
2023-09-30T00:07:33.868Z,90.52
2023-09-30T00:08:33.814Z,90.72
2023-09-30T00:09:33.790Z,90.62
2023-09-30T00:10:33.872Z,90.41
2023-09-30T00:11:33.791Z,90.62
2023-09-30T00:12:33.789Z,90.62
2023-09-30T00:13:33.660Z,90.62
2023-09-30T00:14:33.648Z,90.56
2023-09-30T00:15:33.649Z,90.86
2023-09-30T00:16:33.757Z,91.27
2023-09-30T00:17:33.591Z,90.66
2023-09-30T00:18:33.537Z,91.16
2023-09-30T00:19:33.461Z,91.27
2023-09-30T00:20:33.427Z,91.06
2023-09-30T00:21:33.429Z,91.06
2023-09-30T00:22:33.433Z,91.57
2023-09-30T00:23:33.336Z,91.47
2023-09-30T00:24:33.349Z,91.47
2023-09-30T00:25:33.282Z,91.92
2023-09-30T00:26:33.261Z,92.12
2023-09-30T00:27:33.248Z,91.71
2023-09-30T00:28:33.247Z,91.97
2023-09-30T00:29:33.153Z,91.67
2023-09-30T00:30:33.197Z,91.57
2023-09-30T00:31:33.144Z,91.57
2023-09-30T00:32:33.169Z,92.18
2023-09-30T00:33:33.120Z,92.18
2023-09-30T00:34:33.018Z,92.08
2023-09-30T00:35:32.974Z,91.92
2023-09-30T00:36:32.960Z,92.12
2023-09-30T00:37:32.932Z,91.92
2023-09-30T00:38:32.982Z,92.02
2023-09-30T00:39:32.849Z,92.02
2023-09-30T00:40:32.813Z,91.82
2023-09-30T00:41:32.786Z,92.36
2023-09-30T00:42:32.784Z,92.63
2023-09-30T00:43:32.768Z,92.26
2023-09-30T00:44:32.765Z,92.57
2023-09-30T00:45:32.693Z,92.67
2023-09-30T00:46:32.731Z,92.47
2023-09-30T00:47:32.644Z,92.67
2023-09-30T00:48:32.673Z,92.36
2023-09-30T00:49:32.612Z,92.57
2023-09-30T00:50:32.509Z,92.47
2023-09-30T00:51:32.629Z,93.07
2023-09-30T00:52:32.456Z,92.61
2023-09-30T00:53:32.413Z,92.71
2023-09-30T00:54:32.518Z,92.82
2023-09-30T00:55:32.393Z,92.82
2023-09-30T00:56:32.388Z,92.96
2023-09-30T00:57:33.140Z,93.26
2023-09-30T00:58:32.274Z,93.46
2023-09-30T00:59:32.233Z,93.37
2023-09-30T01:00:32.358Z,93.87
2023-09-30T01:01:32.220Z,93.61
2023-09-30T01:02:32.179Z,93.91
2023-09-30T01:03:32.235Z,94.02
2023-09-30T01:04:32.127Z,94.02
2023-09-30T01:05:32.077Z,94.22
2023-09-30T01:06:32.083Z,94.37
2023-09-30T01:07:32.064Z,94.37
2023-09-30T01:08:31.948Z,94.06
2023-09-30T01:09:31.962Z,94.06
2023-09-30T01:10:31.896Z,94.26
2023-09-30T01:11:32.310Z,94.51
2023-09-30T01:12:31.886Z,94.61
2023-09-30T01:13:31.807Z,94.51
2023-09-30T01:14:31.768Z,94.92
2023-09-30T01:15:31.752Z,95.02
2023-09-30T01:16:31.843Z,95.22
2023-09-30T01:17:31.682Z,95.42
2023-09-30T01:18:31.660Z,95.32
2023-09-30T01:19:31.615Z,95.42
2023-09-30T01:20:31.604Z,94.92
2023-09-30T01:21:31.639Z,94.71
2023-09-30T01:22:31.589Z,95.12
2023-09-30T01:23:31.522Z,95.22
2023-09-30T01:24:31.539Z,95.22
2023-09-30T01:25:31.463Z,95.63
2023-09-30T01:26:31.381Z,95.02
2023-09-30T01:27:31.452Z,95.78
2023-09-30T01:28:31.463Z,95.17
2023-09-30T01:29:31.343Z,95.98
2023-09-30T01:30:31.313Z,95.26
2023-09-30T01:31:31.295Z,95.17
2023-09-30T01:32:31.253Z,95.06
2023-09-30T01:33:31.255Z,94.86
2023-09-30T01:34:31.228Z,95.67
2023-09-30T01:35:31.130Z,95.72
2023-09-30T01:36:31.179Z,95.51
2023-09-30T01:37:31.104Z,95.62
2023-09-30T01:38:31.021Z,96.33
2023-09-30T01:39:31.000Z,96.28
2023-09-30T01:40:31.174Z,95.82
2023-09-30T01:41:30.926Z,95.82
2023-09-30T01:42:30.924Z,96.23
2023-09-30T01:43:30.860Z,96.12
2023-09-30T01:44:30.858Z,96.02
2023-09-30T01:45:30.830Z,96.23
2023-09-30T01:46:30.839Z,96.33
2023-09-30T01:47:30.789Z,96.83
2023-09-30T01:48:30.765Z,96.63
2023-09-30T01:49:30.698Z,96.43
2023-09-30T01:50:30.650Z,96.73
2023-09-30T01:51:30.688Z,96.12
2023-09-30T01:52:30.635Z,97.04
2023-09-30T01:53:30.697Z,96.43
2023-09-30T01:54:30.576Z,96.73
2023-09-30T01:55:30.485Z,96.63
2023-09-30T01:56:30.462Z,96.33
2023-09-30T01:57:30.497Z,96.37
2023-09-30T01:58:30.454Z,96.47
2023-09-30T01:59:30.353Z,96.68
2023-09-30T02:00:30.370Z,96.47
2023-09-30T02:01:30.338Z,96.27
2023-09-30T02:02:30.305Z,96.58
2023-09-30T02:03:30.380Z,96.27
2023-09-30T02:04:30.320Z,96.88
2023-09-30T02:05:30.197Z,97.39
2023-09-30T02:06:30.214Z,96.88
2023-09-30T02:07:30.142Z,97.08
2023-09-30T02:08:30.066Z,96.37
2023-09-30T02:09:30.072Z,96.58
2023-09-30T02:10:30.350Z,96.68
2023-09-30T02:11:30.017Z,96.88
2023-09-30T02:12:30.057Z,96.31
2023-09-30T02:13:29.911Z,96.72
2023-09-30T02:14:29.872Z,96.92
2023-09-30T02:15:29.937Z,97.33
2023-09-30T02:16:29.912Z,97.33
2023-09-30T02:17:29.830Z,97.13
2023-09-30T02:18:29.787Z,97.33
2023-09-30T02:19:29.802Z,96.97
2023-09-30T02:20:29.695Z,96.83
2023-09-30T02:21:29.748Z,96.62
2023-09-30T02:22:29.706Z,97.03
2023-09-30T02:23:29.639Z,97.23
2023-09-30T02:24:29.621Z,97.38
2023-09-30T02:25:29.569Z,97.28
2023-09-30T02:26:29.493Z,97.28
2023-09-30T02:27:29.517Z,96.83
2023-09-30T02:28:29.528Z,96.97
2023-09-30T02:29:29.412Z,97.07
2023-09-30T02:30:29.385Z,96.97
2023-09-30T02:31:29.419Z,96.97
2023-09-30T02:32:29.348Z,97.07
2023-09-30T02:33:29.421Z,96.97
2023-09-30T02:34:29.323Z,96.97
2023-09-30T02:35:29.207Z,96.97
2023-09-30T02:36:29.244Z,96.97
2023-09-30T02:37:29.183Z,96.77
2023-09-30T02:38:29.123Z,97.17
2023-09-30T02:39:29.112Z,97.38
2023-09-30T02:40:29.125Z,97.17
2023-09-30T02:41:29.046Z,96.87
2023-09-30T02:42:29.169Z,96.87
2023-09-30T02:43:28.971Z,96.87
2023-09-30T02:44:28.921Z,97.28
2023-09-30T02:45:29.031Z,96.87
2023-09-30T02:46:29.727Z,96.97
2023-09-30T02:47:31.136Z,96.97
2023-09-30T02:48:28.967Z,96.97
2023-09-30T02:49:28.836Z,97.07
2023-09-30T02:50:28.759Z,97.07
2023-09-30T02:51:28.786Z,96.77
2023-09-30T02:52:28.680Z,97.12
2023-09-30T02:53:28.651Z,96.97
2023-09-30T02:54:28.645Z,97.07
2023-09-30T02:55:28.594Z,97.07
2023-09-30T02:56:28.573Z,97.07
2023-09-30T02:57:28.668Z,96.87
2023-09-30T02:58:28.521Z,96.87
2023-09-30T02:59:28.511Z,96.97
2023-09-30T03:00:28.534Z,96.87
2023-09-30T03:01:28.489Z,96.97
2023-09-30T03:02:28.482Z,96.77
2023-09-30T03:03:28.864Z,96.87
2023-09-30T03:04:28.309Z,96.87
2023-09-30T03:05:28.313Z,96.97
2023-09-30T03:06:28.310Z,96.97
2023-09-30T03:07:28.193Z,96.87
2023-09-30T03:08:28.188Z,97.28
2023-09-30T03:09:28.238Z,96.97
2023-09-30T03:10:28.121Z,97.07
2023-09-30T03:11:28.106Z,96.97
2023-09-30T03:12:28.073Z,97.07
2023-09-30T03:13:28.010Z,96.97
2023-09-30T03:14:28.015Z,96.97
2023-09-30T03:15:28.074Z,96.97
2023-09-30T03:16:27.966Z,97.12
2023-09-30T03:17:27.924Z,97.12
2023-09-30T03:18:28.048Z,97.32
2023-09-30T03:19:27.853Z,97.32
2023-09-30T03:20:27.863Z,96.92
2023-09-30T03:21:27.785Z,96.97
2023-09-30T03:22:27.733Z,96.92
2023-09-30T03:23:27.715Z,96.92
2023-09-30T03:24:27.730Z,97.07
2023-09-30T03:25:27.695Z,97.07
2023-09-30T03:26:27.712Z,96.92
2023-09-30T03:27:27.632Z,96.77
2023-09-30T03:28:27.533Z,96.92
2023-09-30T03:29:27.508Z,96.87
2023-09-30T03:30:27.525Z,96.81
2023-09-30T03:31:27.535Z,96.97
2023-09-30T03:32:28.174Z,97.17
2023-09-30T03:33:27.407Z,97.07
2023-09-30T03:34:27.327Z,96.87
2023-09-30T03:35:27.296Z,96.87
2023-09-30T03:36:27.282Z,96.77
2023-09-30T03:37:27.273Z,97.02
2023-09-30T03:38:27.264Z,96.81
2023-09-30T03:39:27.216Z,97.02
2023-09-30T03:40:27.155Z,96.92
2023-09-30T03:41:27.135Z,97.02
2023-09-30T03:42:27.117Z,97.12
2023-09-30T03:43:27.048Z,96.81
2023-09-30T03:44:27.102Z,96.92
2023-09-30T03:45:27.017Z,96.81
2023-09-30T03:46:27.023Z,96.81
2023-09-30T03:47:26.954Z,97.02
2023-09-30T03:48:26.893Z,97.02
2023-09-30T03:49:26.864Z,96.96
2023-09-30T03:50:26.898Z,97.02
2023-09-30T03:51:26.833Z,96.92
2023-09-30T03:52:26.746Z,97.06
2023-09-30T03:53:26.710Z,97.16
2023-09-30T03:54:26.742Z,96.92
2023-09-30T03:55:26.844Z,96.96
2023-09-30T03:56:26.632Z,96.81
2023-09-30T03:57:26.693Z,96.81
2023-09-30T03:58:26.570Z,97.16
2023-09-30T03:59:26.534Z,97.02
2023-09-30T04:00:26.714Z,96.92
2023-09-30T04:01:26.507Z,96.96
2023-09-30T04:02:26.483Z,97.02
2023-09-30T04:03:26.593Z,96.86
2023-09-30T04:04:26.486Z,96.92
2023-09-30T04:05:26.381Z,97.12
2023-09-30T04:06:26.352Z,97.06
2023-09-30T04:07:26.286Z,97.06
2023-09-30T04:08:26.304Z,97.12
2023-09-30T04:09:26.270Z,97.06
2023-09-30T04:10:26.334Z,97.02
2023-09-30T04:11:26.658Z,97.12
2023-09-30T04:12:26.126Z,97.12
2023-09-30T04:13:26.093Z,96.96
2023-09-30T04:14:26.061Z,97.06
2023-09-30T04:15:26.128Z,97.06
2023-09-30T04:16:26.051Z,96.96
2023-09-30T04:17:25.991Z,97.16
2023-09-30T04:18:25.967Z,97.06
2023-09-30T04:19:26.207Z,97.16
2023-09-30T04:20:25.861Z,97.06
2023-09-30T04:21:25.834Z,96.86
2023-09-30T04:22:25.896Z,97.16
2023-09-30T04:23:25.775Z,97.06
2023-09-30T04:24:25.798Z,96.96
2023-09-30T04:25:25.702Z,96.86
2023-09-30T04:26:25.666Z,97.21
2023-09-30T04:27:26.187Z,97.11
2023-09-30T04:28:25.677Z,97.11
2023-09-30T04:29:25.565Z,96.91
2023-09-30T04:30:25.606Z,96.91
2023-09-30T04:31:25.595Z,96.91
2023-09-30T04:32:25.573Z,97.31
2023-09-30T04:33:25.464Z,97.52
2023-09-30T04:34:25.511Z,97.72
2023-09-30T04:35:25.376Z,97.31
2023-09-30T04:36:25.384Z,97.62
2023-09-30T04:37:25.308Z,97.52
2023-09-30T04:38:25.276Z,97.56
2023-09-30T04:39:25.345Z,97.66
2023-09-30T04:40:25.360Z,97.36
2023-09-30T04:41:25.196Z,97.56
2023-09-30T04:42:25.307Z,97.36
2023-09-30T04:43:25.139Z,97.56
2023-09-30T04:44:25.178Z,98.13
2023-09-30T04:45:25.047Z,97.92
2023-09-30T04:46:25.102Z,97.66
2023-09-30T04:47:25.060Z,97.77
2023-09-30T04:48:25.020Z,97.56
2023-09-30T04:49:24.934Z,97.56
2023-09-30T04:50:25.003Z,97.46
2023-09-30T04:51:24.906Z,97.61
2023-09-30T04:52:24.921Z,97.46
2023-09-30T04:53:24.785Z,97.36
2023-09-30T04:54:24.812Z,97.97
2023-09-30T04:55:24.730Z,98.32
2023-09-30T04:56:24.762Z,97.71
2023-09-30T04:57:24.686Z,98.02
2023-09-30T04:58:32.793Z,97.91
2023-09-30T04:59:24.629Z,97.81
2023-09-30T05:00:24.581Z,97.86
2023-09-30T05:01:24.548Z,98.06
2023-09-30T05:02:24.639Z,98.36
2023-09-30T05:03:24.569Z,98.36
2023-09-30T05:04:24.568Z,98.22
2023-09-30T05:05:24.409Z,98.22
2023-09-30T05:06:24.645Z,98.22
2023-09-30T05:07:24.324Z,98.27
2023-09-30T05:08:24.353Z,97.91
2023-09-30T05:09:24.277Z,98.32
2023-09-30T05:10:24.254Z,97.96
2023-09-30T05:11:24.229Z,98.22
2023-09-30T05:12:24.222Z,98.11
2023-09-30T05:13:24.127Z,98.32
2023-09-30T05:14:24.178Z,98.32
2023-09-30T05:15:24.244Z,98.11
2023-09-30T05:16:24.116Z,98.22
2023-09-30T05:17:24.107Z,98.32
2023-09-30T05:18:24.079Z,98.32
2023-09-30T05:19:23.940Z,98.36
2023-09-30T05:20:24.060Z,97.91
2023-09-30T05:21:24.839Z,97.86
2023-09-30T05:22:23.854Z,98.16
2023-09-30T05:23:23.815Z,97.75
2023-09-30T05:24:23.826Z,98.11
2023-09-30T05:25:23.758Z,97.75
2023-09-30T05:26:23.789Z,98.02
2023-09-30T05:27:23.767Z,98.16
2023-09-30T05:28:23.654Z,97.86
2023-09-30T05:29:23.613Z,98.27
2023-09-30T05:30:23.636Z,97.86
2023-09-30T05:31:23.622Z,98.11
2023-09-30T05:32:23.608Z,98.22
2023-09-30T05:33:23.539Z,98.32
2023-09-30T05:34:23.458Z,98.43
2023-09-30T05:35:23.547Z,98.32
2023-09-30T05:36:23.446Z,98.02
2023-09-30T05:37:23.438Z,97.91
2023-09-30T05:38:23.394Z,97.61
2023-09-30T05:39:23.352Z,97.50
2023-09-30T05:40:23.917Z,97.46
2023-09-30T05:41:23.618Z,97.36
2023-09-30T05:42:23.224Z,97.66
2023-09-30T05:43:23.170Z,97.62
2023-09-30T05:44:23.262Z,97.56
2023-09-30T05:45:23.125Z,97.31
2023-09-30T05:46:23.075Z,97.21
2023-09-30T05:47:23.071Z,96.96
2023-09-30T05:48:23.092Z,96.86
2023-09-30T05:49:23.015Z,96.96
2023-09-30T05:50:23.051Z,97.27
2023-09-30T05:51:22.984Z,97.37
2023-09-30T05:52:22.907Z,96.41
2023-09-30T05:53:22.838Z,96.30
2023-09-30T05:54:22.830Z,96.71
2023-09-30T05:55:22.784Z,96.81
2023-09-30T05:56:22.827Z,96.61
2023-09-30T05:57:22.746Z,96.06
2023-09-30T05:58:22.694Z,96.46
2023-09-30T05:59:23.696Z,95.95
2023-09-30T06:00:22.677Z,96.26
2023-09-30T06:01:22.635Z,95.85
2023-09-30T06:02:22.618Z,96.11
2023-09-30T06:03:22.597Z,95.61
2023-09-30T06:04:22.592Z,96.11
2023-09-30T06:05:22.595Z,95.50
2023-09-30T06:06:22.451Z,96.01
2023-09-30T06:07:22.408Z,96.22
2023-09-30T06:08:22.474Z,95.50
2023-09-30T06:09:22.425Z,95.81
2023-09-30T06:10:22.306Z,95.56
2023-09-30T06:11:22.342Z,95.56
2023-09-30T06:12:22.312Z,95.76
2023-09-30T06:13:22.209Z,95.56
2023-09-30T06:14:22.188Z,95.56
2023-09-30T06:15:22.236Z,95.56
2023-09-30T06:16:22.127Z,95.56
2023-09-30T06:17:22.078Z,95.66
2023-09-30T06:18:22.108Z,95.66
2023-09-30T06:19:22.033Z,95.36
2023-09-30T06:20:21.995Z,95.36
2023-09-30T06:21:22.141Z,95.15
2023-09-30T06:22:21.931Z,95.05
2023-09-30T06:23:21.993Z,95.15
2023-09-30T06:24:21.986Z,95.15
2023-09-30T06:25:21.875Z,95.15
2023-09-30T06:26:21.805Z,95.25
2023-09-30T06:27:21.800Z,94.95
2023-09-30T06:28:21.736Z,95.15
2023-09-30T06:29:21.707Z,95.15
2023-09-30T06:30:21.906Z,95.15
2023-09-30T06:31:21.883Z,95.00
2023-09-30T06:32:21.615Z,95.15
2023-09-30T06:33:21.601Z,95.15
2023-09-30T06:34:21.553Z,94.74
2023-09-30T06:35:23.641Z,95.05
2023-09-30T06:36:21.570Z,94.95
2023-09-30T06:37:21.457Z,94.95
2023-09-30T06:38:21.440Z,95.05
2023-09-30T06:39:21.532Z,95.05
2023-09-30T06:40:21.370Z,94.90
2023-09-30T06:41:21.332Z,94.90
2023-09-30T06:42:21.401Z,94.90
2023-09-30T06:43:21.277Z,94.50
2023-09-30T06:44:21.250Z,94.90
2023-09-30T06:45:21.238Z,94.70
2023-09-30T06:46:21.237Z,94.90
2023-09-30T06:47:21.158Z,94.86
2023-09-30T06:48:21.188Z,94.56
2023-09-30T06:49:21.140Z,94.66
2023-09-30T06:50:21.048Z,94.05
2023-09-30T06:51:21.042Z,94.00
2023-09-30T06:52:20.992Z,94.51
2023-09-30T06:53:20.957Z,94.51
2023-09-30T06:54:20.991Z,94.37
2023-09-30T06:55:20.909Z,93.96
2023-09-30T06:56:20.885Z,93.55
2023-09-30T06:57:20.877Z,93.35
2023-09-30T06:58:20.803Z,93.55
2023-09-30T06:59:20.771Z,93.51
2023-09-30T07:00:20.822Z,93.55
2023-09-30T07:01:20.735Z,93.45
2023-09-30T07:02:20.682Z,93.51
2023-09-30T07:03:22.513Z,93.81
2023-09-30T07:04:20.760Z,93.61
2023-09-30T07:05:20.583Z,93.21
2023-09-30T07:06:20.675Z,93.21
2023-09-30T07:07:20.541Z,93.10
2023-09-30T07:08:20.517Z,93.30
2023-09-30T07:09:20.495Z,93.10
2023-09-30T07:10:20.440Z,92.96
2023-09-30T07:11:20.405Z,92.65
2023-09-30T07:12:20.493Z,92.76
2023-09-30T07:13:20.336Z,92.82
2023-09-30T07:14:20.326Z,92.65
2023-09-30T07:15:20.403Z,92.86
2023-09-30T07:16:20.351Z,92.61
2023-09-30T07:17:20.229Z,93.02
2023-09-30T07:18:20.327Z,92.82
2023-09-30T07:19:20.157Z,92.71
2023-09-30T07:20:20.125Z,92.36
2023-09-30T07:21:20.214Z,92.47
2023-09-30T07:22:29.895Z,92.36
2023-09-30T07:23:20.920Z,91.66
2023-09-30T07:24:20.072Z,92.06
2023-09-30T07:25:20.014Z,91.96
2023-09-30T07:26:19.994Z,91.86
2023-09-30T07:27:27.714Z,91.86
2023-09-30T07:28:19.901Z,91.96
2023-09-30T07:29:19.855Z,92.47
2023-09-30T07:30:19.851Z,92.67
2023-09-30T07:31:20.756Z,91.86
2023-09-30T07:32:19.798Z,92.10
2023-09-30T07:33:19.863Z,91.90
2023-09-30T07:34:19.787Z,92.00
2023-09-30T07:35:19.677Z,92.21
2023-09-30T07:36:19.695Z,91.90
2023-09-30T07:37:19.622Z,91.96
2023-09-30T07:38:19.600Z,91.86
2023-09-30T07:39:19.644Z,92.61
2023-09-30T07:40:19.528Z,92.10
2023-09-30T07:41:19.505Z,92.91
2023-09-30T07:42:19.492Z,92.61
2023-09-30T07:43:19.442Z,92.36
2023-09-30T07:44:19.414Z,92.00
2023-09-30T07:45:19.516Z,92.21
2023-09-30T07:46:19.403Z,91.86
2023-09-30T07:47:19.318Z,92.16
2023-09-30T07:48:19.319Z,91.75
2023-09-30T07:49:19.263Z,91.86
2023-09-30T07:50:19.238Z,91.86
2023-09-30T07:51:19.289Z,91.71
2023-09-30T07:52:19.169Z,91.20
2023-09-30T07:53:19.141Z,91.82
2023-09-30T07:54:30.905Z,91.82
2023-09-30T07:55:19.130Z,91.31
2023-09-30T07:56:19.051Z,91.57
2023-09-30T07:57:19.093Z,91.27
2023-09-30T07:58:18.987Z,91.27
2023-09-30T07:59:18.957Z,90.76
2023-09-30T08:00:19.023Z,91.22
2023-09-30T08:01:19.015Z,90.82
2023-09-30T08:02:18.865Z,90.72
2023-09-30T08:03:19.092Z,90.47
2023-09-30T08:04:18.896Z,90.43
2023-09-30T08:05:18.781Z,90.43
2023-09-30T08:06:18.793Z,90.73
2023-09-30T08:07:18.765Z,89.88
2023-09-30T08:08:18.695Z,89.68
2023-09-30T08:09:18.779Z,89.64
2023-09-30T08:10:18.634Z,89.34
2023-09-30T08:11:21.240Z,88.83
2023-09-30T08:12:18.628Z,89.34
2023-09-30T08:13:18.548Z,88.68
2023-09-30T08:14:18.525Z,88.39
2023-09-30T08:15:18.656Z,88.14
2023-09-30T08:16:20.055Z,88.45
2023-09-30T08:17:18.507Z,87.94
2023-09-30T08:18:18.470Z,87.94
2023-09-30T08:19:18.373Z,87.74
2023-09-30T08:20:18.355Z,87.54
2023-09-30T08:21:18.399Z,88.99
2023-09-30T08:22:18.286Z,88.89
2023-09-30T08:23:18.262Z,89.09
2023-09-30T08:24:18.254Z,88.12
2023-09-30T08:25:18.220Z,88.47
2023-09-30T08:26:18.170Z,89.07
2023-09-30T08:27:18.225Z,88.97
2023-09-30T08:28:18.119Z,88.06
2023-09-30T08:29:18.094Z,88.97
2023-09-30T08:30:18.069Z,88.77
2023-09-30T08:31:18.074Z,89.32
2023-09-30T08:32:17.999Z,89.07
2023-09-30T08:33:18.066Z,89.22
2023-09-30T08:34:17.947Z,89.42
2023-09-30T08:35:17.925Z,89.22
2023-09-30T08:36:17.957Z,90.17
2023-09-30T08:37:17.865Z,90.27
2023-09-30T08:38:17.900Z,90.37
2023-09-30T08:39:17.866Z,90.37
2023-09-30T08:40:17.783Z,90.17
2023-09-30T08:41:17.750Z,90.62
2023-09-30T08:42:18.403Z,90.11
2023-09-30T08:43:17.790Z,90.62
2023-09-30T08:44:17.701Z,90.52
2023-09-30T08:45:17.643Z,91.12
2023-09-30T08:46:17.688Z,91.69
2023-09-30T08:47:17.573Z,90.88
2023-09-30T08:48:17.539Z,90.27
2023-09-30T08:49:17.524Z,90.63
2023-09-30T08:50:17.527Z,90.43
2023-09-30T08:51:17.452Z,90.83
2023-09-30T08:52:17.434Z,89.22
2023-09-30T08:53:18.380Z,89.58
2023-09-30T08:54:17.416Z,89.42
2023-09-30T08:55:17.344Z,89.42
2023-09-30T08:56:17.360Z,88.92
2023-09-30T08:57:17.275Z,89.22
2023-09-30T08:58:17.244Z,89.42
2023-09-30T08:59:17.217Z,89.32
2023-09-30T09:00:17.189Z,89.62
2023-09-30T09:01:17.289Z,89.92
2023-09-30T09:02:17.179Z,89.62
2023-09-30T09:03:17.264Z,89.22
2023-09-30T09:04:17.139Z,89.32
2023-09-30T09:05:17.041Z,89.52
2023-09-30T09:06:17.001Z,89.32
2023-09-30T09:07:16.981Z,88.77
2023-09-30T09:08:17.013Z,89.01
2023-09-30T09:09:16.937Z,88.61
2023-09-30T09:10:16.901Z,88.87
2023-09-30T09:11:16.872Z,89.28
2023-09-30T09:12:16.825Z,88.87
2023-09-30T09:13:17.115Z,88.57
2023-09-30T09:14:16.873Z,89.28
2023-09-30T09:15:16.791Z,88.87
2023-09-30T09:16:16.806Z,88.83
2023-09-30T09:17:16.711Z,88.97
2023-09-30T09:18:16.652Z,88.26
2023-09-30T09:19:16.620Z,87.92
2023-09-30T09:20:16.655Z,88.02
2023-09-30T09:21:17.473Z,87.72
2023-09-30T09:22:16.531Z,87.92
2023-09-30T09:23:16.508Z,87.01
2023-09-30T09:24:16.469Z,87.41
2023-09-30T09:25:16.436Z,86.51
2023-09-30T09:26:18.718Z,87.62
2023-09-30T09:27:16.375Z,87.52
2023-09-30T09:28:16.338Z,86.97
2023-09-30T09:29:16.312Z,86.47
2023-09-30T09:30:16.579Z,85.76
2023-09-30T09:31:16.371Z,86.07
2023-09-30T09:32:16.292Z,86.77
2023-09-30T09:33:18.150Z,87.18
2023-09-30T09:34:16.164Z,85.86
2023-09-30T09:35:16.160Z,86.57
2023-09-30T09:36:16.093Z,86.57
2023-09-30T09:37:16.082Z,85.76
2023-09-30T09:38:16.100Z,85.66
2023-09-30T09:39:16.025Z,85.31
2023-09-30T09:40:15.975Z,85.02
2023-09-30T09:41:15.971Z,85.52
2023-09-30T09:42:15.924Z,85.42
2023-09-30T09:43:15.891Z,85.11
2023-09-30T09:44:15.913Z,84.61
2023-09-30T09:45:15.840Z,85.31
2023-09-30T09:46:15.831Z,85.52
2023-09-30T09:47:15.766Z,85.02
2023-09-30T09:48:17.762Z,85.11
2023-09-30T09:49:15.716Z,84.17
2023-09-30T09:50:15.748Z,84.88
2023-09-30T09:51:15.660Z,84.47
2023-09-30T09:52:15.648Z,83.97
2023-09-30T09:53:15.593Z,84.17
2023-09-30T09:54:15.562Z,83.87
2023-09-30T09:55:15.534Z,83.46
2023-09-30T09:56:15.565Z,83.36
2023-09-30T09:57:15.480Z,82.96
2023-09-30T09:58:15.449Z,83.16
2023-09-30T09:59:15.468Z,83.46
2023-09-30T10:00:15.397Z,82.82
2023-09-30T10:01:15.428Z,83.02
2023-09-30T10:02:15.423Z,82.71
2023-09-30T10:03:15.429Z,82.92
2023-09-30T10:04:16.037Z,83.32
2023-09-30T10:05:15.256Z,81.61
2023-09-30T10:06:15.202Z,81.81
2023-09-30T10:07:15.188Z,81.51
2023-09-30T10:08:15.198Z,81.51
2023-09-30T10:09:15.128Z,81.51
2023-09-30T10:10:15.091Z,81.91
2023-09-30T10:11:15.066Z,81.81
2023-09-30T10:12:15.034Z,81.37
2023-09-30T10:13:15.005Z,80.66
2023-09-30T10:14:15.028Z,80.26
2023-09-30T10:15:14.947Z,80.46
2023-09-30T10:16:15.034Z,80.36
2023-09-30T10:17:14.889Z,79.76
2023-09-30T10:18:16.247Z,80.16
2023-09-30T10:19:14.836Z,80.16
2023-09-30T10:20:14.896Z,80.02
2023-09-30T10:21:14.774Z,79.52
2023-09-30T10:22:14.774Z,78.71
2023-09-30T10:23:14.740Z,78.67
2023-09-30T10:24:14.676Z,79.44
2023-09-30T10:25:14.698Z,78.34
2023-09-30T10:26:14.686Z,77.94
2023-09-30T10:27:14.625Z,77.53
2023-09-30T10:28:14.562Z,76.83
2023-09-30T10:29:14.537Z,76.69
2023-09-30T10:30:15.469Z,76.25
2023-09-30T10:31:14.795Z,75.65
2023-09-30T10:32:14.524Z,75.15
2023-09-30T10:33:17.537Z,75.31
2023-09-30T10:34:14.400Z,75.62
2023-09-30T10:35:14.367Z,75.42
2023-09-30T10:36:14.332Z,74.98
2023-09-30T10:37:14.316Z,73.71
2023-09-30T10:38:14.351Z,75.31
2023-09-30T10:39:14.260Z,74.37
2023-09-30T10:40:14.257Z,74.27
2023-09-30T10:41:14.191Z,72.87
2023-09-30T10:42:14.168Z,72.53
2023-09-30T10:43:14.154Z,73.24
2023-09-30T10:44:14.467Z,73.64
2023-09-30T10:45:14.122Z,73.64
2023-09-30T10:46:14.081Z,72.94
2023-09-30T10:47:14.033Z,70.73
2023-09-30T10:48:14.015Z,70.93
2023-09-30T10:49:13.996Z,70.53
2023-09-30T10:50:14.033Z,71.26
2023-09-30T10:51:13.916Z,71.36
2023-09-30T10:52:13.892Z,70.96
2023-09-30T10:53:13.872Z,71.60
2023-09-30T10:54:13.842Z,71.50
2023-09-30T10:55:13.806Z,71.53
2023-09-30T10:56:13.856Z,72.03
2023-09-30T10:57:13.769Z,72.77
2023-09-30T10:58:13.720Z,72.84
2023-09-30T10:59:13.707Z,72.84
2023-09-30T11:00:20.714Z,72.33
2023-09-30T11:01:13.714Z,72.44
2023-09-30T11:02:13.799Z,72.33
2023-09-30T11:03:13.758Z,73.00
2023-09-30T11:04:13.699Z,72.90
2023-09-30T11:05:13.655Z,72.30
2023-09-30T11:06:13.637Z,72.87
2023-09-30T11:07:13.479Z,73.00
2023-09-30T11:08:13.497Z,72.77
2023-09-30T11:09:13.469Z,73.10
2023-09-30T11:10:13.397Z,72.60
2023-09-30T11:11:13.425Z,72.77
2023-09-30T11:12:13.343Z,72.60
2023-09-30T11:13:13.308Z,71.56
2023-09-30T11:14:13.345Z,71.56
2023-09-30T11:15:13.255Z,72.74
2023-09-30T11:16:13.262Z,69.59
2023-09-30T11:17:13.195Z,69.96
2023-09-30T11:18:13.172Z,68.96
2023-09-30T11:19:13.156Z,69.02
2023-09-30T11:20:13.175Z,69.62
2023-09-30T11:21:13.110Z,67.65
2023-09-30T11:22:13.069Z,67.62
2023-09-30T11:23:13.040Z,68.26
2023-09-30T11:24:13.016Z,69.02
2023-09-30T11:25:13.048Z,68.42
2023-09-30T11:26:13.040Z,68.52
2023-09-30T11:27:12.973Z,68.39
2023-09-30T11:28:12.913Z,68.79
2023-09-30T11:29:12.914Z,67.66
2023-09-30T11:30:12.848Z,67.55
2023-09-30T11:31:12.876Z,68.13
2023-09-30T11:32:12.955Z,66.22
2023-09-30T11:33:12.763Z,66.55
2023-09-30T11:34:12.924Z,66.66
2023-09-30T11:35:12.713Z,65.86
2023-09-30T11:36:12.779Z,67.89
2023-09-30T11:37:12.688Z,67.49
2023-09-30T11:38:12.685Z,67.29
2023-09-30T11:39:12.608Z,69.69
2023-09-30T11:40:12.578Z,66.69
2023-09-30T11:41:12.555Z,68.79
2023-09-30T11:42:12.561Z,69.19
2023-09-30T11:43:12.504Z,69.59
2023-09-30T11:44:14.056Z,68.86
2023-09-30T11:45:12.441Z,69.16
2023-09-30T11:46:12.469Z,68.96
2023-09-30T11:47:12.393Z,69.12
2023-09-30T11:48:12.411Z,65.83
2023-09-30T11:49:12.390Z,66.02
2023-09-30T11:50:12.388Z,67.16
2023-09-30T11:51:12.289Z,65.86
2023-09-30T11:52:12.315Z,64.75
2023-09-30T11:53:12.230Z,64.95
2023-09-30T11:54:12.214Z,66.09
2023-09-30T11:55:12.181Z,65.99
2023-09-30T11:56:12.257Z,64.78
2023-09-30T11:57:12.147Z,64.48
2023-09-30T11:58:12.114Z,64.39
2023-09-30T11:59:12.081Z,67.19
2023-09-30T12:00:12.049Z,66.36
2023-09-30T12:01:12.046Z,65.55
2023-09-30T12:02:15.193Z,66.93
2023-09-30T12:03:11.988Z,67.49
2023-09-30T12:04:12.111Z,64.59
2023-09-30T12:05:11.907Z,64.03
2023-09-30T12:06:11.889Z,63.85
2023-09-30T12:07:11.889Z,63.85
2023-09-30T12:08:11.924Z,65.05
2023-09-30T12:09:12.704Z,64.29
2023-09-30T12:10:11.846Z,65.49
2023-09-30T12:11:11.782Z,64.06
2023-09-30T12:12:12.803Z,63.26
2023-09-30T12:13:11.705Z,62.79
2023-09-30T12:14:12.012Z,65.09
2023-09-30T12:15:11.648Z,63.29
2023-09-30T12:16:11.741Z,63.26
2023-09-30T12:17:11.590Z,62.56
2023-09-30T12:18:11.642Z,61.99
2023-09-30T12:19:11.606Z,60.89
2023-09-30T12:20:11.701Z,61.99
2023-09-30T12:21:11.540Z,61.09
2023-09-30T12:22:11.831Z,61.52
2023-09-30T12:23:11.445Z,61.42
2023-09-30T12:24:11.490Z,62.02
2023-09-30T12:25:11.436Z,61.52
2023-09-30T12:26:15.098Z,61.32
2023-09-30T12:27:11.384Z,62.12
2023-09-30T12:28:11.310Z,62.52
2023-09-30T12:29:11.320Z,64.03
2023-09-30T12:30:11.259Z,62.52
2023-09-30T12:31:11.307Z,62.52
2023-09-30T12:32:11.443Z,63.42
2023-09-30T12:33:11.335Z,64.22
2023-09-30T12:34:11.157Z,63.62
2023-09-30T12:35:11.121Z,64.15
2023-09-30T12:36:11.307Z,64.45
2023-09-30T12:37:11.233Z,64.45
2023-09-30T12:38:11.115Z,64.39
2023-09-30T12:39:11.029Z,65.01
2023-09-30T12:40:11.065Z,65.15
2023-09-30T12:41:10.967Z,65.65
2023-09-30T12:42:10.974Z,65.95
2023-09-30T12:43:10.922Z,65.55
2023-09-30T12:44:10.947Z,65.18
2023-09-30T12:45:10.864Z,65.98
2023-09-30T12:46:10.922Z,65.45
2023-09-30T12:47:10.831Z,64.84
2023-09-30T12:48:10.803Z,66.75
2023-09-30T12:49:10.837Z,64.34
2023-09-30T12:50:12.827Z,64.25
2023-09-30T12:51:10.704Z,64.18
2023-09-30T12:52:10.705Z,64.68